Time;durP1;ratioP1;P1;durP2;ratioP2;P2;SDS_P1;SDS_P2;PMS_P1;PMS_P2;Temp;Humidity;BMP_temperature;BMP_pressure;BME280_temperature;BME280_humidity;BME280_pressure;Samples;Min_cycle;Max_cycle;Signal;HPM_P1;HPM_P2
2021/01/30 00:00:26;;;;;;;14.60;10.30;;;;;;;-0.94;74.25;98031.83;1749329;80;21113;-65
2021/01/30 00:02:54;;;;;;;15.20;10.17;;;;;;;-0.96;74.50;98040.48;1724229;81;21123;-65
2021/01/30 00:05:21;;;;;;;13.53;9.67;;;;;;;-0.96;74.58;98039.95;1706944;82;21148;-67
2021/01/30 00:07:49;;;;;;;17.00;11.20;;;;;;;-0.98;74.55;98044.65;1731406;81;21207;-69
2021/01/30 00:10:18;;;;;;;15.80;11.97;;;;;;;-0.98;74.69;98043.33;1712840;83;21209;-67
2021/01/30 00:12:47;;;;;;;15.03;10.37;;;;;;;-0.96;74.62;98038.62;1698036;83;21155;-68
2021/01/30 00:15:18;;;;;;;16.37;10.73;;;;;;;-0.94;74.62;98042.37;1710473;83;21020;-66
2021/01/30 00:17:46;;;;;;;15.43;10.63;;;;;;;-0.94;74.53;98046.33;1706212;83;21198;-68
2021/01/30 00:20:16;;;;;;;16.47;11.00;;;;;;;-0.91;74.50;98042.74;1691625;83;21577;-67
2021/01/30 00:22:43;;;;;;;11.63;7.23;;;;;;;-0.89;74.53;98040.70;1722045;83;21620;-66
2021/01/30 00:25:12;;;;;;;22.47;10.60;;;;;;;-0.86;74.31;98050.01;1704191;83;21216;-63
2021/01/30 00:27:39;;;;;;;18.20;12.00;;;;;;;-0.86;74.24;98054.50;1693879;83;21208;-62
2021/01/30 00:30:13;;;;;;;24.00;15.73;;;;;;;-0.91;74.29;98059.89;1690752;83;21189;-62
2021/01/30 00:32:41;;;;;;;20.50;13.93;;;;;;;-0.89;74.49;98063.64;1694494;83;21271;-61
2021/01/30 00:35:11;;;;;;;19.93;12.67;;;;;;;-0.90;74.40;98061.52;1684337;85;21178;-62
2021/01/30 00:37:38;;;;;;;21.63;13.67;;;;;;;-1.02;74.59;98054.53;1696521;83;21013;-64
2021/01/30 00:40:10;;;;;;;17.77;12.10;;;;;;;-1.12;74.95;98066.08;1707937;83;21218;-62
2021/01/30 00:42:37;;;;;;;20.17;13.43;;;;;;;-1.11;75.14;98067.70;1703119;83;21187;-61
2021/01/30 00:45:09;;;;;;;20.57;14.37;;;;;;;-1.13;74.98;98077.64;1684577;83;22301;-62
2021/01/30 00:47:36;;;;;;;20.73;12.70;;;;;;;-1.21;74.88;98073.95;1703654;83;21350;-61
2021/01/30 00:50:06;;;;;;;24.20;14.20;;;;;;;-1.25;75.04;98076.22;1712944;83;21548;-63
2021/01/30 00:52:34;;;;;;;15.00;12.60;;;;;;;-1.27;74.97;98078.25;1703571;83;21175;-62
2021/01/30 00:55:14;;;;;;;17.07;11.97;;;;;;;-1.22;75.07;98081.56;1889127;76;26941;-61
2021/01/30 00:57:42;;;;;;;24.63;13.50;;;;;;;-1.30;75.05;98075.24;1808077;78;21011;-62
2021/01/30 01:00:20;;;;;;;17.53;12.00;;;;;;;-1.40;74.88;98088.89;1792651;79;21521;-60
2021/01/30 01:02:48;;;;;;;19.07;12.57;;;;;;;-1.45;75.06;98084.77;1806232;79;20980;-63
2021/01/30 01:05:17;;;;;;;21.63;13.63;;;;;;;-1.48;75.11;98087.30;1757841;79;20994;-64
2021/01/30 01:07:45;;;;;;;24.90;13.73;;;;;;;-1.48;75.12;98080.71;1755324;79;20955;-66
2021/01/30 01:10:14;;;;;;;24.47;15.33;;;;;;;-1.47;75.06;98077.57;1787371;80;20986;-61
2021/01/30 01:12:42;;;;;;;28.70;13.73;;;;;;;-1.46;74.94;98085.27;1788640;80;22079;-66
2021/01/30 01:15:18;;;;;;;30.70;15.43;;;;;;;-1.46;74.88;98081.33;1802629;79;21033;-62
2021/01/30 01:17:46;;;;;;;27.03;15.30;;;;;;;-1.47;74.79;98082.34;1771545;80;21082;-61
2021/01/30 01:20:17;;;;;;;24.97;13.07;;;;;;;-1.45;74.65;98073.72;1795631;80;21054;-61
2021/01/30 01:22:44;;;;;;;29.47;16.57;;;;;;;-1.47;74.49;98079.70;1794460;80;21139;-63
2021/01/30 01:25:13;;;;;;;28.97;15.23;;;;;;;-1.48;74.61;98080.71;1783976;80;21174;-62
2021/01/30 01:27:40;;;;;;;25.43;14.80;;;;;;;-1.44;74.65;98087.17;1772372;79;21188;-63
2021/01/30 01:30:10;;;;;;;25.73;13.90;;;;;;;-1.42;74.38;98095.69;1779399;79;21018;-62
2021/01/30 01:32:37;;;;;;;23.93;14.53;;;;;;;-1.45;74.27;98092.67;1777651;79;21192;-61
2021/01/30 01:35:07;;;;;;;21.37;13.93;;;;;;;-1.49;74.19;98103.35;1770873;79;21140;-62
2021/01/30 01:37:34;;;;;;;26.20;13.37;;;;;;;-1.54;74.27;98103.17;1816395;78;21187;-63
2021/01/30 01:40:05;;;;;;;28.20;16.90;;;;;;;-1.55;74.40;98112.91;1785866;78;21106;-64
2021/01/30 01:42:32;;;;;;;21.83;13.27;;;;;;;-1.61;74.21;98115.06;1799265;78;21559;-67
2021/01/30 01:45:00;;;;;;;31.90;15.57;;;;;;;-1.65;74.39;98106.47;1799754;78;21149;-63
2021/01/30 01:47:33;;;;;;;24.97;14.60;;;;;;;-1.66;74.55;98111.44;1782452;80;21201;-65
2021/01/30 01:50:05;;;;;;;24.23;14.90;;;;;;;-1.65;74.54;98114.38;1784844;78;21168;-67
2021/01/30 01:52:36;;;;;;;18.70;13.40;;;;;;;-1.62;74.71;98113.94;1760635;78;21129;-67
2021/01/30 01:55:16;;;;;;;24.77;15.90;;;;;;;-1.61;74.58;98112.93;1789877;79;21122;-66
2021/01/30 01:57:53;;;;;;;19.30;11.93;;;;;;;-1.63;74.70;98113.13;1791782;78;21604;-66
2021/01/30 02:00:21;;;;;;;23.20;13.47;;;;;;;-1.65;74.75;98116.51;1809595;78;21122;-66
2021/01/30 02:02:50;;;;;;;16.90;12.30;;;;;;;-1.66;74.77;98114.88;1781786;79;21201;-67
2021/01/30 02:05:27;;;;;;;15.53;12.47;;;;;;;-1.68;74.94;98109.03;1776878;80;21630;-64
2021/01/30 02:07:58;;;;;;;23.10;13.47;;;;;;;-1.71;74.98;98109.43;1769632;81;21173;-69
2021/01/30 02:10:29;;;;;;;30.97;16.40;;;;;;;-1.70;75.11;98113.69;1751873;79;21121;-69
2021/01/30 02:13:05;;;;;;;20.40;13.93;;;;;;;-1.71;75.10;98120.48;1794250;79;21418;-68
2021/01/30 02:15:32;;;;;;;18.07;12.73;;;;;;;-1.71;75.18;98119.16;1801128;79;21383;-70
2021/01/30 02:18:35;;;;;;;22.23;13.60;;;;;;;-1.67;75.17;98119.03;1799179;79;21133;-68
2021/01/30 02:21:08;;;;;;;20.43;12.37;;;;;;;-1.69;75.01;98112.68;1771810;79;21177;-69
2021/01/30 02:24:04;;;;;;;19.48;12.60;;;;;;;-1.73;74.83;98117.27;1789910;79;21073;-70
2021/01/30 02:27:11;;;;;;;16.90;11.80;;;;;;;-1.77;75.05;98111.08;1790988;79;21141;-73
2021/01/30 02:30:24;;;;;;;17.07;11.50;;;;;;;-1.76;74.99;98118.47;1777027;79;23027;-68
2021/01/30 02:33:15;;;;;;;20.03;12.63;;;;;;;-1.82;74.88;98116.16;1770189;81;21042;-68
2021/01/30 02:36:26;;;;;;;19.73;12.43;;;;;;;-1.92;74.78;98118.43;1785977;78;21610;-67
2021/01/30 02:39:01;;;;;;;22.10;12.43;;;;;;;-2.02;74.91;98116.77;1776160;79;21580;-68
2021/01/30 02:41:33;;;;;;;19.57;12.90;;;;;;;-2.08;75.06;98109.70;1806195;78;21094;-68
2021/01/30 02:44:02;;;;;;;19.30;13.20;;;;;;;-2.09;75.06;98109.39;1786010;80;21385;-69
2021/01/30 02:46:34;;;;;;;19.73;13.93;;;;;;;-2.16;75.11;98105.98;1790348;79;21504;-67
2021/01/30 02:49:08;;;;;;;21.85;12.30;;;;;;;-2.17;75.26;98111.45;1782334;79;21626;-67
2021/01/30 02:51:41;;;;;;;23.10;13.88;;;;;;;-2.16;75.27;98120.97;1796463;79;21258;-66
2021/01/30 02:54:09;;;;;;;;;;;;;;;-2.23;75.39;98107.81;1803198;79;21141;-66
2021/01/30 02:56:38;;;;;;;15.63;10.70;;;;;;;-2.21;75.53;98101.31;1799978;79;21207;-66
2021/01/30 02:59:16;;;;;;;21.60;13.57;;;;;;;-2.22;75.46;98099.72;1803826;79;21610;-66
2021/01/30 03:01:43;;;;;;;19.70;13.50;;;;;;;-2.25;75.45;98100.11;1794247;79;21147;-66
2021/01/30 03:04:21;;;;;;;20.57;14.47;;;;;;;-2.23;75.66;98089.39;1781458;80;21608;-65
2021/01/30 03:07:23;;;;;;;16.57;12.20;;;;;;;-2.20;75.48;98092.91;1794193;79;21151;-66
2021/01/30 03:10:14;;;;;;;17.20;11.20;;;;;;;-2.27;75.35;98092.95;1801997;79;21767;-66
2021/01/30 03:13:08;;;;;;;19.07;13.67;;;;;;;-2.36;75.50;98085.48;1768120;79;21093;-67
2021/01/30 03:15:41;;;;;;;16.53;13.47;;;;;;;-2.48;75.61;98076.09;1770239;81;21132;-66
2021/01/30 03:18:09;;;;;;;18.65;11.78;;;;;;;-2.52;75.87;98084.59;1770397;81;21645;-66
2021/01/30 03:20:40;;;;;;;20.27;14.13;;;;;;;-2.45;76.02;98082.77;1789457;80;21167;-65
2021/01/30 03:23:10;;;;;;;18.37;13.03;;;;;;;-2.42;75.99;98088.42;1789322;80;21275;-67
2021/01/30 03:25:38;;;;;;;15.53;11.83;;;;;;;-2.39;76.05;98083.24;1789253;80;21206;-65
2021/01/30 03:28:05;;;;;;;16.63;12.70;;;;;;;-2.41;75.86;98086.11;1792146;78;21102;-66
2021/01/30 03:30:33;;;;;;;16.07;12.53;;;;;;;-2.44;75.93;98087.81;1790074;80;21011;-66
2021/01/30 03:33:02;;;;;;;19.63;13.57;;;;;;;-2.45;76.04;98087.53;1810386;78;21175;-66
2021/01/30 03:35:30;;;;;;;20.37;15.43;;;;;;;-2.45;75.99;98080.14;1775821;80;21205;-67
2021/01/30 03:37:57;;;;;;;20.50;13.03;;;;;;;-2.42;76.12;98091.06;1782136;78;21039;-67
2021/01/30 03:40:25;;;;;;;19.63;12.30;;;;;;;-2.38;76.04;98077.78;1780987;79;20987;-66
2021/01/30 03:42:53;;;;;;;14.80;11.17;;;;;;;-2.35;75.87;98078.67;1797553;79;21002;-66
2021/01/30 03:45:25;;;;;;;13.73;8.97;;;;;;;-2.34;75.75;98076.34;1791606;80;21567;-67
2021/01/30 03:47:52;;;;;;;14.80;12.17;;;;;;;-2.39;75.52;98093.77;1784264;80;21382;-66
2021/01/30 03:50:20;;;;;;;15.43;11.57;;;;;;;-2.50;75.45;98092.61;1775191;80;21204;-68
2021/01/30 03:52:48;;;;;;;17.70;11.63;;;;;;;-2.58;75.54;98097.25;1789011;80;20990;-67
2021/01/30 03:55:16;;;;;;;18.07;12.90;;;;;;;-2.62;75.76;98100.00;1826272;78;21137;-67
2021/01/30 03:57:43;;;;;;;15.80;9.93;;;;;;;-2.68;75.86;98098.48;1792424;80;21185;-67
2021/01/30 04:00:15;;;;;;;21.07;12.47;;;;;;;-2.73;75.90;98093.53;1793213;80;21550;-67
2021/01/30 04:02:42;;;;;;;18.80;12.20;;;;;;;-2.77;75.98;98083.93;1827817;78;21546;-66
2021/01/30 04:05:14;;;;;;;15.93;11.97;;;;;;;-2.79;76.12;98080.71;1794724;80;21062;-66
2021/01/30 04:07:42;;;;;;;18.70;11.60;;;;;;;-2.78;76.12;98083.62;1797940;78;21129;-66
2021/01/30 04:10:13;;;;;;;20.33;13.77;;;;;;;-2.80;76.11;98079.09;1793831;80;21125;-66
2021/01/30 04:12:40;;;;;;;14.73;12.37;;;;;;;-2.80;76.20;98086.98;1790366;79;21211;-67
2021/01/30 04:15:12;;;;;;;18.17;13.03;;;;;;;-2.82;76.24;98094.75;1796133;79;21010;-66
2021/01/30 04:17:39;;;;;;;21.60;13.30;;;;;;;-2.85;76.35;98081.52;1798206;79;21133;-66
2021/01/30 04:20:09;;;;;;;16.63;12.07;;;;;;;-2.84;76.38;98084.96;1794064;80;21200;-66
2021/01/30 04:22:36;;;;;;;15.70;12.43;;;;;;;-2.82;76.50;98078.97;1792124;80;21125;-66
2021/01/30 04:25:06;;;;;;;18.97;13.07;;;;;;;-2.81;76.43;98084.04;1792002;80;21384;-66
2021/01/30 04:27:33;;;;;;;17.07;13.60;;;;;;;-2.79;76.49;98087.28;1792183;80;21129;-66
2021/01/30 04:30:04;;;;;;;16.00;14.07;;;;;;;-2.75;76.44;98080.60;1791789;79;21161;-67
2021/01/30 04:32:31;;;;;;;17.13;12.37;;;;;;;-2.67;76.52;98088.77;1773267;80;21183;-66
2021/01/30 04:34:59;;;;;;;20.63;13.07;;;;;;;-2.67;76.33;98088.27;1809814;78;21097;-67
2021/01/30 04:37:27;;;;;;;19.10;12.50;;;;;;;-2.64;76.29;98080.48;1795149;79;21273;-65
2021/01/30 04:39:54;;;;;;;26.77;16.77;;;;;;;-2.70;75.93;98074.72;1796158;78;21010;-65
2021/01/30 04:42:48;;;;;;;24.30;15.60;;;;;;;-2.82;76.07;98068.45;1821842;78;21109;-66
2021/01/30 04:45:41;;;;;;;21.83;15.50;;;;;;;-2.80;76.41;98060.67;1828021;78;21610;-66
2021/01/30 04:48:54;;;;;;;19.23;14.00;;;;;;;-2.79;76.39;98056.23;1828009;78;21127;-66
2021/01/30 04:51:33;;;;;;;23.97;16.00;;;;;;;-2.78;76.48;98062.58;1786013;80;21199;-66
2021/01/30 04:54:08;;;;;;;25.43;14.23;;;;;;;-2.86;76.23;98077.27;1812253;78;20975;-65
2021/01/30 04:56:50;;;;;;;18.53;13.03;;;;;;;-2.83;76.50;98086.05;1795191;79;21109;-65
2021/01/30 04:59:50;;;;;;;25.57;16.93;;;;;;;-2.80;76.51;98091.42;1795206;80;21130;-68
2021/01/30 05:02:52;;;;;;;26.10;15.63;;;;;;;-2.96;76.46;98095.77;1795730;78;21140;-67
2021/01/30 05:05:21;;;;;;;32.80;18.67;;;;;;;-3.14;76.96;98103.77;1795093;80;21210;-65
2021/01/30 05:08:02;;;;;;;32.23;21.07;;;;;;;-3.22;77.05;98103.17;1795080;80;21160;-66
2021/01/30 05:10:37;;;;;;;29.82;17.35;;;;;;;-3.20;77.30;98107.70;1802251;78;21013;-66
2021/01/30 05:13:13;;;;;;;28.87;16.83;;;;;;;-3.32;77.07;98099.62;1800826;79;21153;-67
2021/01/30 05:16:00;;;;;;;25.83;16.67;;;;;;;-3.42;77.40;98091.31;1814113;79;21603;-66
2021/01/30 05:18:33;;;;;;;23.47;16.20;;;;;;;-3.52;77.75;98095.64;1814144;78;21211;-67
2021/01/30 05:21:21;;;;;;;24.87;15.90;;;;;;;-3.58;78.07;98100.38;1813095;79;21173;-67
2021/01/30 05:23:51;;;;;;;28.17;19.47;;;;;;;-3.59;78.33;98100.06;1805769;79;20968;-66
2021/01/30 05:27:01;;;;;;;28.27;14.53;;;;;;;-3.65;78.45;98107.95;1768287;80;21022;-67
2021/01/30 05:29:53;;;;;;;25.83;18.30;;;;;;;-3.61;78.55;98109.97;1759214;80;21109;-67
2021/01/30 05:32:32;;;;;;;25.63;15.10;;;;;;;-3.64;78.59;98099.03;1796541;79;21196;-63
2021/01/30 05:35:18;;;;;;;28.10;20.30;;;;;;;-3.58;78.70;98103.00;1794452;79;21086;-66
2021/01/30 05:38:11;;;;;;;27.57;17.83;;;;;;;-3.53;78.65;98105.84;1811971;79;21224;-67
2021/01/30 05:40:46;;;;;;;25.12;18.80;;;;;;;-3.45;78.63;98119.81;1806653;78;21105;-66
2021/01/30 05:43:45;;;;;;;22.77;15.50;;;;;;;-3.33;78.67;98127.41;1823235;78;21122;-66
2021/01/30 05:46:18;;;;;;;22.77;15.93;;;;;;;-3.34;78.11;98131.03;1795682;79;21204;-66
2021/01/30 05:48:46;;;;;;;26.13;16.20;;;;;;;-3.45;77.83;98126.38;1795911;78;21665;-67
2021/01/30 05:51:37;;;;;;;25.47;16.63;;;;;;;-3.55;77.89;98126.23;1827132;78;21860;-68
2021/01/30 05:54:04;;;;;;;21.57;15.50;;;;;;;-3.71;77.89;98123.98;1828039;78;21164;-67
2021/01/30 05:56:44;;;;;;;30.47;18.57;;;;;;;-3.85;78.11;98118.88;1774518;78;21103;-66
2021/01/30 05:59:26;;;;;;;21.67;15.40;;;;;;;-4.03;78.43;98124.15;1742545;82;22145;-66
2021/01/30 06:02:20;;;;;;;28.07;19.90;;;;;;;-4.09;78.78;98124.14;1742546;82;21106;-67
2021/01/30 06:04:47;;;;;;;25.23;17.45;;;;;;;-4.19;78.97;98123.19;1724092;83;21168;-66
2021/01/30 06:07:34;;;;;;;23.07;18.20;;;;;;;-4.20;79.32;98124.68;1692987;83;21688;-66
2021/01/30 06:10:30;;;;;;;25.73;14.53;;;;;;;-4.17;79.47;98129.03;1738540;81;21181;-65
2021/01/30 06:13:21;;;;;;;23.47;16.17;;;;;;;-4.13;79.45;98138.66;1786294;80;21443;-66
2021/01/30 06:15:56;;;;;;;28.97;20.63;;;;;;;-4.16;79.59;98130.66;1766278;80;22288;-66
2021/01/30 06:18:40;;;;;;;31.33;20.03;;;;;;;-4.23;79.49;98139.02;1755724;81;21579;-67
2021/01/30 06:21:21;;;;;;;18.83;12.93;;;;;;;-4.14;79.63;98137.03;1746713;81;20998;-66
2021/01/30 06:24:12;;;;;;;25.27;14.30;;;;;;;-4.08;79.43;98134.45;1740597;81;21176;-66
2021/01/30 06:26:45;;;;;;;27.50;19.80;;;;;;;-4.09;79.34;98138.08;1739700;82;21214;-66
2021/01/30 06:29:37;;;;;;;29.13;18.57;;;;;;;-4.10;79.42;98144.33;1708311;84;21101;-66
2021/01/30 06:32:22;;;;;;;25.07;18.37;;;;;;;-4.07;79.26;98153.61;1741981;81;21117;-65
2021/01/30 06:34:55;;;;;;;25.53;16.10;;;;;;;-4.00;79.08;98155.28;1798993;78;21105;-69
2021/01/30 06:37:48;;;;;;;20.08;14.03;;;;;;;-4.21;78.42;98150.11;1795124;78;21578;-68
2021/01/30 06:40:33;;;;;;;26.77;16.57;;;;;;;-4.44;78.87;98152.20;1792498;80;21528;-68
2021/01/30 06:43:19;;;;;;;19.30;14.30;;;;;;;-4.63;79.21;98153.69;1791211;80;21133;-66
2021/01/30 06:45:47;;;;;;;22.77;17.57;;;;;;;-4.67;79.57;98154.27;1791899;78;21168;-69
2021/01/30 06:48:40;;;;;;;19.87;13.47;;;;;;;-4.79;79.95;98150.52;1795469;78;21034;-67
2021/01/30 06:51:30;;;;;;;21.13;14.47;;;;;;;-4.86;80.23;98151.80;1792945;79;21137;-67
2021/01/30 06:54:27;;;;;;;24.57;15.77;;;;;;;-4.97;80.77;98154.92;1791135;78;21218;-63
2021/01/30 06:57:21;;;;;;;20.13;11.83;;;;;;;-5.02;81.13;98148.94;1769453;80;21614;-68
2021/01/30 07:00:00;;;;;;;20.60;12.00;;;;;;;-4.95;81.40;98147.20;1763298;81;21147;-65
2021/01/30 07:02:38;;;;;;;22.17;13.77;;;;;;;-4.84;81.50;98146.66;1768406;79;21190;-66
2021/01/30 07:05:20;;;;;;;20.57;13.73;;;;;;;-4.84;81.28;98134.05;1768367;79;21186;-70
2021/01/30 07:08:29;;;;;;;17.67;13.23;;;;;;;-4.86;81.46;98136.07;1766920;79;21380;-68
2021/01/30 07:11:39;;;;;;;19.63;12.93;;;;;;;-4.84;81.70;98134.05;1781328;80;21163;-65
2021/01/30 07:14:24;;;;;;;18.20;12.63;;;;;;;-4.85;81.86;98137.70;1762471;80;21142;-63
2021/01/30 07:17:06;;;;;;;20.87;12.70;;;;;;;-4.82;82.12;98129.94;1797344;79;21144;-61
2021/01/30 07:20:04;;;;;;;18.80;12.93;;;;;;;-4.81;82.21;98132.38;1797452;79;21125;-64
2021/01/30 07:22:54;;;;;;;22.30;15.37;;;;;;;-4.73;82.36;98130.11;1768191;79;21167;-64
2021/01/30 07:25:30;;;;;;;18.43;13.17;;;;;;;-4.65;82.32;98132.08;1789677;79;21342;-64
2021/01/30 07:28:05;;;;;;;14.63;11.50;;;;;;;-4.57;82.43;98126.70;1796367;79;21117;-64
2021/01/30 07:30:44;;;;;;;21.97;15.00;;;;;;;-4.47;82.41;98125.05;1790835;79;21153;-65
2021/01/30 07:33:24;;;;;;;21.90;14.13;;;;;;;-4.32;82.21;98131.49;1889102;76;26715;-64
2021/01/30 07:36:06;;;;;;;19.85;13.22;;;;;;;-4.28;82.11;98132.72;1856816;75;22466;-67
2021/01/30 07:38:48;;;;;;;24.17;17.10;;;;;;;-4.21;81.94;98129.61;1778164;80;22372;-63
2021/01/30 07:42:01;;;;;;;26.40;17.50;;;;;;;-4.16;81.82;98131.97;1781649;80;20996;-63
2021/01/30 07:44:38;;;;;;;27.80;17.93;;;;;;;-4.12;81.83;98130.58;1778169;80;20980;-63
2021/01/30 07:47:13;;;;;;;29.03;19.90;;;;;;;-4.08;81.49;98130.52;1782234;80;21031;-62
2021/01/30 07:49:47;;;;;;;26.57;16.33;;;;;;;-4.01;81.47;98133.16;1782778;80;21019;-63
2021/01/30 07:52:23;;;;;;;25.77;17.93;;;;;;;-3.96;81.35;98134.19;1778323;78;21700;-63
2021/01/30 07:54:52;;;;;;;23.83;16.77;;;;;;;-3.90;81.11;98135.23;1773780;80;20983;-64
2021/01/30 07:57:57;;;;;;;22.77;16.90;;;;;;;-3.84;80.82;98127.89;1763143;80;21038;-64
2021/01/30 08:00:33;;;;;;;27.30;18.63;;;;;;;-3.83;80.53;98122.10;1755131;81;21215;-65
2021/01/30 08:03:11;;;;;;;25.60;17.80;;;;;;;-3.81;80.42;98124.86;1759202;80;21148;-66
2021/01/30 08:05:55;;;;;;;27.07;21.37;;;;;;;-3.76;80.39;98130.83;1762570;81;21363;-65
2021/01/30 08:08:42;;;;;;;31.90;18.95;;;;;;;-3.70;80.36;98117.73;1762614;81;21173;-64
2021/01/30 08:11:31;;;;;;;35.77;22.80;;;;;;;-3.66;80.20;98120.77;1762912;80;20941;-66
2021/01/30 08:14:38;;;;;;;42.70;23.53;;;;;;;-3.62;80.05;98129.36;1762492;81;20992;-64
2021/01/30 08:17:31;;;;;;;37.70;24.17;;;;;;;-3.55;80.03;98133.34;1762416;81;21163;-65
2021/01/30 08:20:06;;;;;;;31.77;21.70;;;;;;;-3.52;80.11;98134.23;1770793;80;21206;-64
2021/01/30 08:22:42;;;;;;;30.43;20.60;;;;;;;-3.52;80.04;98133.73;1762486;81;21034;-63
2021/01/30 08:25:17;;;;;;;37.50;25.30;;;;;;;-3.49;79.94;98140.91;1776975;80;21552;-63
2021/01/30 08:27:48;;;;;;;37.17;21.80;;;;;;;-3.43;79.98;98140.11;1793009;80;21110;-63
2021/01/30 08:30:20;;;;;;;27.03;19.87;;;;;;;-3.35;79.85;98143.36;1788128;80;21221;-65
2021/01/30 08:33:03;;;;;;;30.23;20.03;;;;;;;-3.27;79.94;98145.01;1793255;80;22287;-63
2021/01/30 08:35:36;;;;;;;26.23;17.97;;;;;;;-3.19;79.95;98140.87;1780950;80;21201;-66
2021/01/30 08:38:21;;;;;;;31.40;21.48;;;;;;;-3.05;79.92;98137.25;1758438;81;21145;-64
2021/01/30 08:40:57;;;;;;;32.40;18.90;;;;;;;-2.97;80.54;98131.78;1770401;81;21116;-67
2021/01/30 08:43:45;;;;;;;24.97;19.00;;;;;;;-2.83;81.51;98139.19;1770229;81;21579;-65
2021/01/30 08:46:40;;;;;;;30.30;20.10;;;;;;;-2.78;81.02;98137.55;1769782;81;21208;-64
2021/01/30 08:49:20;;;;;;;28.23;20.47;;;;;;;-2.70;80.98;98138.67;1769883;79;21025;-66
2021/01/30 08:52:10;;;;;;;28.07;18.47;;;;;;;-2.71;79.91;98144.13;1769711;81;21030;-65
2021/01/30 08:54:42;;;;;;;33.17;21.77;;;;;;;-2.71;79.53;98141.50;1704525;79;21655;-67
2021/01/30 08:57:36;;;;;;;45.12;25.77;;;;;;;-2.71;79.26;98134.42;1770928;80;21183;-61
2021/01/30 09:00:30;;;;;;;41.50;23.45;;;;;;;-2.69;78.87;98134.23;1761249;80;21279;-63
2021/01/30 09:03:05;;;;;;;36.40;22.47;;;;;;;-2.68;78.74;98130.05;1787111;80;21544;-61
2021/01/30 09:05:38;;;;;;;38.27;22.50;;;;;;;-2.65;78.56;98125.72;1770309;79;21224;-61
2021/01/30 09:08:21;;;;;;;41.90;25.05;;;;;;;-2.65;78.33;98127.03;1773330;79;21142;-62
2021/01/30 09:10:48;;;;;;;38.47;26.67;;;;;;;-2.64;78.32;98127.84;1770169;80;21142;-61
2021/01/30 09:13:19;;;;;;;46.50;29.70;;;;;;;-2.60;78.37;98127.73;1761277;81;21224;-64
2021/01/30 09:15:54;;;;;;;36.53;23.83;;;;;;;-2.56;78.19;98129.45;1762453;80;21153;-64
2021/01/30 09:18:39;;;;;;;40.97;27.17;;;;;;;-2.48;78.26;98127.41;1784449;80;21181;-63
2021/01/30 09:21:29;;;;;;;36.20;22.90;;;;;;;-2.41;78.12;98120.83;1792148;78;20990;-64
2021/01/30 09:24:18;;;;;;;50.00;29.47;;;;;;;-2.36;77.96;98126.28;1764070;80;21127;-63
2021/01/30 09:26:51;;;;;;;30.37;21.60;;;;;;;-2.34;77.92;98117.66;1760775;81;21405;-63
2021/01/30 09:29:22;;;;;;;;;;;;;;;-2.30;78.05;98127.56;1764167;80;21082;-62
2021/01/30 09:31:57;;;;;;;34.87;19.57;;;;;;;-2.31;77.98;98127.28;1758906;81;20252;-63
2021/01/30 09:34:28;;;;;;;33.87;21.87;;;;;;;-2.29;78.21;98127.88;1753100;81;21631;-61
2021/01/30 09:36:56;;;;;;;35.97;24.00;;;;;;;-2.28;78.04;98126.05;1746350;81;21684;-62
2021/01/30 09:39:36;;;;;;;38.13;22.43;;;;;;;-2.31;78.14;98122.02;1764195;80;21220;-62
2021/01/30 09:42:19;;;;;;;35.00;23.03;;;;;;;-2.27;78.46;98125.86;1767149;80;21160;-62
2021/01/30 09:45:01;;;;;;;45.00;27.80;;;;;;;-2.31;78.58;98121.21;1743460;80;25429;-64
2021/01/30 09:47:29;;;;;;;39.30;26.03;;;;;;;-2.46;78.95;98118.00;1707561;82;21614;-61
2021/01/30 09:50:04;;;;;;;41.00;26.17;;;;;;;-2.60;79.30;98104.06;1731458;81;21125;-61
2021/01/30 09:52:31;;;;;;;51.13;25.53;;;;;;;-2.61;79.86;98105.57;1709680;83;21185;-62
2021/01/30 09:55:10;;;;;;;44.80;27.83;;;;;;;-2.69;80.31;98108.73;1735123;81;21137;-61
2021/01/30 09:57:37;;;;;;;36.33;22.60;;;;;;;-2.67;80.56;98118.53;1734820;81;21626;-62
2021/01/30 10:00:19;;;;;;;38.57;23.67;;;;;;;-2.68;80.80;98111.64;1731268;82;21535;-62
2021/01/30 10:02:47;;;;;;;31.60;20.70;;;;;;;-2.71;80.90;98096.78;1728705;82;21156;-63
2021/01/30 10:05:16;;;;;;;32.50;19.77;;;;;;;-2.75;81.23;98096.89;1731715;81;22515;-65
2021/01/30 10:07:44;;;;;;;28.57;20.13;;;;;;;-2.77;81.33;98093.14;1756648;81;21201;-62
2021/01/30 10:10:31;;;;;;;34.47;20.93;;;;;;;-2.83;81.61;98088.68;1756708;81;21078;-63
2021/01/30 10:13:01;;;;;;;37.87;23.60;;;;;;;-2.86;81.89;98092.23;1756784;81;21031;-63
2021/01/30 10:15:33;;;;;;;46.37;27.90;;;;;;;-2.86;82.15;98085.16;1755934;81;21166;-63
2021/01/30 10:18:07;;;;;;;44.95;26.00;;;;;;;-2.83;82.46;98076.84;1756412;81;21306;-62
2021/01/30 10:20:53;;;;;;;40.40;24.33;;;;;;;-2.83;82.59;98067.64;1760948;81;21176;-64
2021/01/30 10:23:33;;;;;;;26.73;18.83;;;;;;;-2.76;82.88;98065.83;1759390;81;21571;-63
2021/01/30 10:26:19;;;;;;;28.60;21.10;;;;;;;-2.68;82.73;98062.97;1743029;81;21223;-61
2021/01/30 10:29:03;;;;;;;42.07;24.40;;;;;;;-2.62;82.74;98055.27;1701853;84;21177;-62
2021/01/30 10:31:37;;;;;;;35.43;21.50;;;;;;;-2.60;82.42;98047.48;1684048;81;21621;-64
2021/01/30 10:34:35;;;;;;;35.88;21.62;;;;;;;-2.67;82.61;98048.00;1721257;82;21033;-61
2021/01/30 10:37:20;;;;;;;41.20;21.73;;;;;;;-2.77;82.74;98044.98;1758575;80;21140;-62
2021/01/30 10:40:03;;;;;;;35.47;23.17;;;;;;;-2.79;83.20;98036.50;1771223;80;21075;-63
2021/01/30 10:42:34;;;;;;;36.13;23.00;;;;;;;-2.84;83.16;98034.48;1732672;81;21157;-67
2021/01/30 10:45:18;;;;;;;31.77;23.63;;;;;;;-2.85;83.31;98026.28;1720080;82;21286;-63
2021/01/30 10:48:00;;;;;;;26.67;18.13;;;;;;;-2.89;83.36;98026.91;1732844;82;21143;-66
2021/01/30 10:50:34;;;;;;;31.70;21.03;;;;;;;-2.88;83.70;98022.77;1733090;82;21187;-66
2021/01/30 10:53:23;;;;;;;29.00;21.40;;;;;;;-2.84;83.62;98025.78;1733295;81;21660;-63
2021/01/30 10:55:51;;;;;;;28.70;18.23;;;;;;;-2.87;83.48;98021.73;1688240;83;21571;-64
2021/01/30 10:58:26;;;;;;;26.13;19.17;;;;;;;-2.91;83.62;98016.58;1756150;81;21123;-65
2021/01/30 11:01:00;;;;;;;26.77;18.13;;;;;;;-2.92;83.78;98007.57;1756079;81;21179;-64
2021/01/30 11:03:51;;;;;;;20.97;14.93;;;;;;;-2.92;84.13;98003.63;1757313;80;21611;-63
2021/01/30 11:06:45;;;;;;;23.90;15.47;;;;;;;-2.90;84.26;98006.88;1711385;83;21069;-66
2021/01/30 11:09:26;;;;;;;27.98;20.60;;;;;;;-2.86;84.51;97998.36;1726170;83;21580;-65
2021/01/30 11:12:12;;;;;;;26.37;18.48;;;;;;;-2.85;84.49;97996.04;1697511;83;21211;-64
2021/01/30 11:40:39;;;;;;;37.27;26.27;;;;;;;-2.76;85.56;97951.40;1728997;81;20240;-63
2021/01/30 11:43:09;;;;;;;38.90;25.37;;;;;;;-2.74;85.88;97927.52;1777442;78;21407;-61
2021/01/30 11:45:37;;;;;;;32.57;22.57;;;;;;;-2.66;86.10;97920.20;1769919;78;21690;-65
2021/01/30 11:48:07;;;;;;;36.27;25.83;;;;;;;-2.62;86.00;97914.00;1774511;78;21600;-64
2021/01/30 11:50:35;;;;;;;26.40;19.23;;;;;;;-2.59;86.06;97907.03;1772895;79;21539;-64
2021/01/30 11:53:10;;;;;;;27.87;18.53;;;;;;;-2.54;86.25;97903.77;1778977;78;21173;-64
2021/01/30 11:55:38;;;;;;;35.20;21.25;;;;;;;-2.50;86.26;97895.75;1768347;80;21366;-63
2021/01/30 11:58:06;;;;;;;31.30;23.23;;;;;;;-2.47;86.21;97884.78;1725046;83;21565;-63
2021/01/30 12:00:36;;;;;;;31.60;22.63;;;;;;;-2.51;86.16;97891.49;1725916;83;21092;-65
2021/01/30 12:03:04;;;;;;;36.10;23.90;;;;;;;-2.55;86.37;97884.53;1811773;78;21832;-64
2021/01/30 12:05:33;;;;;;;39.93;26.90;;;;;;;-2.58;86.54;97884.94;1735986;80;21141;-66
2021/01/30 12:08:00;;;;;;;33.13;22.30;;;;;;;-2.59;86.72;97885.98;1704212;83;21203;-65
2021/01/30 12:10:28;;;;;;;36.20;21.43;;;;;;;-2.53;87.01;97881.17;1725990;83;21798;-64
2021/01/30 12:12:59;;;;;;;45.63;32.27;;;;;;;-2.46;87.15;97875.88;1767863;78;21019;-64
2021/01/30 12:15:28;;;;;;;36.03;25.13;;;;;;;-2.43;87.09;97876.25;1788512;78;21212;-62
2021/01/30 12:17:56;;;;;;;45.60;32.07;;;;;;;-2.43;86.83;97872.31;1787770;80;21221;-64
2021/01/30 12:20:27;;;;;;;38.43;26.90;;;;;;;-2.48;86.73;97868.69;1771316;81;21390;-65
2021/01/30 12:22:57;;;;;;;49.55;32.95;;;;;;;-2.48;86.71;97861.61;1802296;78;21145;-64
2021/01/30 12:25:25;;;;;;;39.00;28.77;;;;;;;-2.52;86.66;97859.61;1800215;78;21650;-63
2021/01/30 12:27:56;;;;;;;37.40;26.57;;;;;;;-2.55;86.71;97860.86;1759864;81;21153;-65